Tomball, Texas
Current Conditions -  °F | °C
As of 7:53 PM on Saturday 25 Oct 2014 (Local Time) from KDWH Reporting Station
Clear Clear  
Wind Chill: 69°   Ceiling: Unl
Heat Index: 69°   Visibility: 10mi
Dew Point: 61°   Wind: 3mph
Humidity: 75%   Direction: 160°SSE
Pressure: 30.09"   Gusts: NA
Location:  30.1°N, 95.62°W
Report Text: KDWH 260053Z AUTO 16003KT 10SM CLR 21/16 A3009 RMK AO2 SLP188 T02060161 TSNO
Loading
Personal Weather Stations






























Interactive Weather Map
Tropical Storm Tracking
New forecast layout! Learn more

10-Day Weather Forecast

Advertisements
Track Severe Weather on mobile